createdAt,value
2018-09-22T00:01:53.743Z,73.90
2018-09-22T00:04:21.924Z,74.20
2018-09-22T00:06:50.092Z,74.50
2018-09-22T00:09:18.280Z,75.30
2018-09-22T00:11:46.451Z,74.80
2018-09-22T00:14:14.647Z,75.20
2018-09-22T00:16:42.859Z,75.70
2018-09-22T00:19:11.023Z,75.90
2018-09-22T00:21:39.245Z,76.30
2018-09-22T00:24:07.397Z,77.70
2018-09-22T00:26:35.551Z,77.60
2018-09-22T00:29:03.740Z,78.30
2018-09-22T00:31:31.900Z,79.20
2018-09-22T00:34:00.083Z,80.00
2018-09-22T00:36:28.255Z,80.50
2018-09-22T00:38:56.420Z,80.70
2018-09-22T00:41:24.611Z,81.40
2018-09-22T00:43:52.779Z,81.80
2018-09-22T00:46:20.950Z,82.60
2018-09-22T00:48:49.143Z,82.80
2018-09-22T00:51:17.359Z,83.00
2018-09-22T00:53:45.527Z,82.50
2018-09-22T00:56:13.703Z,81.90
2018-09-22T00:58:41.888Z,81.80
2018-09-22T01:01:10.088Z,81.30
2018-09-22T01:03:38.252Z,81.00
2018-09-22T01:06:06.527Z,81.10
2018-09-22T01:08:34.714Z,81.10
2018-09-22T01:11:02.882Z,81.40
2018-09-22T01:13:31.059Z,82.60
2018-09-22T01:15:59.256Z,83.80
2018-09-22T01:18:27.464Z,84.10
2018-09-22T01:20:55.618Z,85.20
2018-09-22T01:23:23.812Z,85.60
2018-09-22T01:25:51.982Z,86.30
2018-09-22T01:28:20.136Z,86.40
2018-09-22T01:30:48.302Z,86.70
2018-09-22T01:33:16.470Z,86.90
2018-09-22T01:35:44.625Z,86.90
2018-09-22T01:38:12.791Z,86.70
2018-09-22T01:40:40.942Z,86.80
2018-09-22T01:43:09.109Z,86.70
2018-09-22T01:45:37.256Z,86.00
2018-09-22T01:48:05.422Z,85.60
2018-09-22T01:50:33.587Z,85.10
2018-09-22T01:53:01.766Z,85.10
2018-09-22T01:55:29.930Z,85.20
2018-09-22T01:57:58.202Z,85.40
2018-09-22T02:00:26.350Z,85.60
2018-09-22T02:02:54.531Z,85.90
2018-09-22T02:05:22.670Z,86.30
2018-09-22T02:07:50.862Z,86.60
2018-09-22T02:10:19.042Z,86.80
2018-09-22T02:12:47.199Z,86.70
2018-09-22T02:15:15.339Z,86.50
2018-09-22T02:17:43.516Z,86.10
2018-09-22T02:20:11.675Z,85.80
2018-09-22T02:22:39.834Z,85.60
2018-09-22T02:25:08.122Z,85.70
2018-09-22T02:27:36.284Z,85.30
2018-09-22T02:30:04.618Z,84.80
2018-09-22T02:32:32.766Z,84.50
2018-09-22T02:35:00.914Z,84.40
2018-09-22T02:37:29.091Z,84.10
2018-09-22T02:39:57.256Z,83.80
2018-09-22T02:42:25.455Z,83.70
2018-09-22T02:44:53.626Z,83.20
2018-09-22T02:47:21.784Z,82.60
2018-09-22T02:49:50.038Z,82.30
2018-09-22T02:52:18.207Z,82.30
2018-09-22T02:54:46.378Z,82.40
2018-09-22T02:57:14.530Z,82.10
2018-09-22T02:59:42.726Z,82.40
2018-09-22T03:02:10.912Z,82.70
2018-09-22T03:04:39.067Z,82.90
2018-09-22T03:07:07.247Z,83.00
2018-09-22T03:09:35.402Z,83.00
2018-09-22T03:12:03.573Z,83.50
2018-09-22T03:14:31.731Z,82.70
2018-09-22T03:16:59.904Z,83.20
2018-09-22T03:19:28.091Z,83.20
2018-09-22T03:21:56.230Z,83.30
2018-09-22T03:24:24.391Z,83.50
2018-09-22T03:26:52.542Z,83.20
2018-09-22T03:29:20.725Z,83.30
2018-09-22T03:31:48.876Z,83.20
2018-09-22T03:34:17.062Z,83.50
2018-09-22T03:36:45.210Z,83.70
2018-09-22T03:39:13.362Z,83.80
2018-09-22T03:41:41.511Z,84.00
2018-09-22T03:44:10.269Z,84.10
2018-09-22T03:46:38.486Z,84.30
2018-09-22T03:49:06.708Z,84.50
2018-09-22T03:51:34.866Z,84.60
2018-09-22T03:54:03.027Z,84.70
2018-09-22T03:56:31.231Z,84.80
2018-09-22T03:58:59.378Z,85.00
2018-09-22T04:01:27.542Z,85.20
2018-09-22T04:03:55.690Z,85.50
2018-09-22T04:06:23.867Z,85.50
2018-09-22T04:08:52.017Z,85.70
2018-09-22T04:11:20.170Z,85.80
2018-09-22T04:13:48.341Z,86.10
2018-09-22T04:16:16.502Z,86.10
2018-09-22T04:18:44.643Z,86.50
2018-09-22T04:21:12.808Z,86.50
2018-09-22T04:23:41.004Z,86.70
2018-09-22T04:26:09.146Z,86.90
2018-09-22T04:28:37.299Z,87.00
2018-09-22T04:31:05.473Z,86.80
2018-09-22T04:33:33.671Z,87.00
2018-09-22T04:36:01.832Z,86.90
2018-09-22T04:38:29.979Z,86.80
2018-09-22T04:40:58.159Z,86.80
2018-09-22T04:43:26.314Z,86.70
2018-09-22T04:45:54.494Z,87.00
2018-09-22T04:48:22.659Z,87.10
2018-09-22T04:50:50.800Z,87.00
2018-09-22T04:53:18.966Z,87.00
2018-09-22T04:55:47.120Z,86.90
2018-09-22T04:58:15.262Z,87.40
2018-09-22T05:00:43.416Z,87.50
2018-09-22T05:03:11.603Z,87.50
2018-09-22T05:05:39.797Z,88.50
2018-09-22T05:08:08.067Z,87.70
2018-09-22T05:10:36.449Z,88.00
2018-09-22T05:13:04.872Z,88.00
2018-09-22T05:15:33.288Z,87.90
2018-09-22T05:18:01.627Z,87.80
2018-09-22T05:20:30.001Z,87.40
2018-09-22T05:22:58.432Z,87.10
2018-09-22T05:25:26.855Z,86.70
2018-09-22T05:27:57.101Z,85.40
2018-09-22T05:30:25.533Z,82.40
2018-09-22T05:32:53.950Z,78.90
2018-09-22T05:35:22.387Z,76.30
2018-09-22T05:37:51.150Z,73.40
2018-09-22T05:40:19.524Z,70.60
2018-09-22T05:42:47.827Z,68.20
2018-09-22T05:45:16.224Z,64.90
2018-09-22T05:47:44.639Z,63.00
2018-09-22T05:50:31.052Z,62.10
2018-09-22T05:52:59.403Z,63.60
2018-09-22T05:55:27.819Z,65.50
2018-09-22T05:57:56.238Z,67.40
2018-09-22T06:00:24.542Z,69.30
2018-09-22T06:02:52.907Z,70.80
2018-09-22T06:05:21.339Z,71.70
2018-09-22T06:07:49.694Z,72.80
2018-09-22T06:10:18.110Z,73.60
2018-09-22T06:12:46.460Z,74.40
2018-09-22T06:15:14.840Z,74.80
2018-09-22T06:17:43.235Z,75.60
2018-09-22T06:20:11.656Z,75.10
2018-09-22T06:22:40.086Z,74.90
2018-09-22T06:25:08.509Z,74.60
2018-09-22T06:27:36.902Z,74.60
2018-09-22T06:30:05.287Z,74.00
2018-09-22T06:32:33.703Z,74.40
2018-09-22T06:35:02.079Z,74.10
2018-09-22T06:37:30.505Z,73.50
2018-09-22T06:39:58.783Z,73.20
2018-09-22T06:42:27.120Z,73.30
2018-09-22T06:44:55.531Z,73.80
2018-09-22T06:47:23.954Z,74.70
2018-09-22T06:49:52.375Z,74.70
2018-09-22T06:52:20.755Z,74.80
2018-09-22T06:54:49.297Z,74.30
2018-09-22T06:57:17.634Z,73.80
2018-09-22T06:59:46.021Z,73.80
2018-09-22T07:02:14.452Z,73.70
2018-09-22T07:04:42.814Z,73.70
2018-09-22T07:07:11.227Z,73.70
2018-09-22T07:09:39.760Z,73.70
2018-09-22T07:12:08.201Z,73.10
2018-09-22T07:14:36.568Z,71.90
2018-09-22T07:17:04.975Z,72.70
2018-09-22T07:19:33.383Z,72.00
2018-09-22T07:22:07.235Z,71.00
2018-09-22T07:24:35.602Z,69.20
2018-09-22T07:27:03.963Z,69.10
2018-09-22T07:29:50.895Z,68.10
2018-09-22T07:32:19.367Z,68.30
2018-09-22T07:34:47.762Z,69.60
2018-09-22T07:37:16.130Z,69.70
2018-09-22T07:39:44.519Z,68.90
2018-09-22T07:42:12.925Z,69.30
2018-09-22T07:44:41.412Z,69.80
2018-09-22T07:47:09.771Z,69.50
2018-09-22T07:49:38.128Z,70.20
2018-09-22T07:52:06.556Z,69.70
2018-09-22T07:54:34.967Z,68.90
2018-09-22T07:57:03.389Z,68.60
2018-09-22T07:59:31.758Z,68.70
2018-09-22T08:02:00.155Z,68.50
2018-09-22T08:04:28.517Z,67.80
2018-09-22T08:06:56.912Z,66.30
2018-09-22T08:09:25.304Z,66.60
2018-09-22T08:11:53.691Z,65.40
2018-09-22T08:14:22.092Z,65.10
2018-09-22T08:16:50.452Z,65.80
2018-09-22T08:19:18.827Z,66.30
2018-09-22T08:21:47.205Z,65.80
2018-09-22T08:24:15.610Z,64.20
2018-09-22T08:26:44.006Z,64.40
2018-09-22T08:29:12.339Z,64.30
2018-09-22T08:31:40.742Z,63.40
2018-09-22T08:34:09.328Z,60.70
2018-09-22T08:36:37.873Z,56.70
2018-09-22T08:39:08.314Z,53.40
2018-09-22T08:41:36.647Z,50.70
2018-09-22T08:44:05.027Z,49.30
2018-09-22T08:46:33.364Z,49.10
2018-09-22T08:49:01.754Z,48.20
2018-09-22T08:51:30.171Z,50.30
2018-09-22T08:53:58.595Z,50.20
2018-09-22T08:56:26.957Z,50.80
2018-09-22T08:58:55.373Z,50.40
2018-09-22T09:01:23.703Z,49.00
2018-09-22T09:03:52.060Z,43.20
2018-09-22T09:06:20.359Z,38.40
2018-09-22T09:08:48.731Z,34.90
2018-09-22T09:11:17.103Z,34.90
2018-09-22T09:13:45.355Z,33.60
2018-09-22T09:16:13.753Z,32.30
2018-09-22T09:18:42.055Z,34.00
2018-09-22T09:21:10.398Z,34.80
2018-09-22T09:23:38.704Z,35.70
2018-09-22T09:26:07.086Z,36.00
2018-09-22T09:28:35.556Z,36.80
2018-09-22T09:31:04.002Z,36.30
2018-09-22T09:33:32.431Z,34.80
2018-09-22T09:36:00.818Z,33.90
2018-09-22T09:38:29.688Z,34.40
2018-09-22T09:40:58.046Z,34.70
2018-09-22T09:43:26.378Z,34.10
2018-09-22T09:45:54.691Z,37.30
2018-09-22T09:48:23.083Z,38.00
2018-09-22T09:50:51.412Z,39.70
2018-09-22T09:53:19.824Z,42.40
2018-09-22T09:55:48.208Z,43.80
2018-09-22T09:58:16.519Z,43.80
2018-09-22T10:00:45.808Z,43.00
2018-09-22T10:03:15.572Z,44.70
2018-09-22T10:05:44.410Z,45.80
2018-09-22T10:08:12.858Z,46.40
2018-09-22T10:10:41.236Z,47.50
2018-09-22T10:13:09.621Z,47.70
2018-09-22T10:15:38.105Z,47.70
2018-09-22T10:18:06.399Z,45.70
2018-09-22T10:20:34.699Z,43.60
2018-09-22T10:23:02.995Z,42.90
2018-09-22T10:25:31.282Z,42.50
2018-09-22T10:27:59.638Z,40.80
2018-09-22T10:30:27.984Z,41.00
2018-09-22T10:32:56.281Z,41.10
2018-09-22T10:35:24.600Z,40.20
2018-09-22T10:37:52.959Z,38.60
2018-09-22T10:40:21.395Z,38.60
2018-09-22T10:42:49.692Z,41.20
2018-09-22T10:45:18.040Z,40.90
2018-09-22T10:47:46.356Z,41.10
2018-09-22T10:50:14.784Z,39.50
2018-09-22T10:52:43.228Z,39.10
2018-09-22T10:55:11.503Z,37.40
2018-09-22T10:57:39.814Z,37.40
2018-09-22T11:00:08.218Z,38.00
2018-09-22T11:02:36.632Z,37.20
2018-09-22T11:05:05.148Z,36.80
2018-09-22T11:07:33.500Z,38.50
2018-09-22T11:10:01.821Z,39.40
2018-09-22T11:12:30.189Z,38.40
2018-09-22T11:14:58.508Z,40.90
2018-09-22T11:17:26.884Z,39.80
2018-09-22T11:19:55.183Z,40.00
2018-09-22T11:22:23.451Z,38.60
2018-09-22T11:24:51.775Z,39.90
2018-09-22T11:27:20.090Z,39.50
2018-09-22T11:29:48.424Z,40.10
2018-09-22T11:32:16.711Z,40.30
2018-09-22T11:34:45.103Z,39.70
2018-09-22T11:37:13.479Z,40.20
2018-09-22T11:39:41.911Z,40.00
2018-09-22T11:42:10.280Z,38.60
2018-09-22T11:44:38.678Z,40.00
2018-09-22T11:47:06.952Z,40.00
2018-09-22T11:49:35.479Z,39.70
2018-09-22T11:52:03.932Z,39.10
2018-09-22T11:54:32.324Z,38.30
2018-09-22T11:57:00.673Z,36.40
2018-09-22T11:59:28.943Z,37.00
2018-09-22T12:01:57.292Z,38.10
2018-09-22T12:04:31.191Z,38.20
2018-09-22T12:06:59.599Z,39.00
2018-09-22T12:09:27.976Z,40.40
2018-09-22T12:12:09.071Z,41.20
2018-09-22T12:14:37.492Z,41.80
2018-09-22T12:17:05.904Z,42.70
2018-09-22T12:19:34.276Z,43.40
2018-09-22T12:22:02.715Z,45.40
2018-09-22T12:24:31.087Z,45.90
2018-09-22T12:26:59.478Z,46.40
2018-09-22T12:29:27.834Z,44.10
2018-09-22T12:31:56.234Z,44.60
2018-09-22T12:34:24.489Z,43.40
2018-09-22T12:36:52.821Z,43.10
2018-09-22T12:39:21.163Z,42.80
2018-09-22T12:41:49.521Z,43.40
2018-09-22T12:44:17.896Z,43.50
2018-09-22T12:46:46.216Z,44.00
2018-09-22T12:49:14.590Z,43.20
2018-09-22T12:51:42.978Z,42.90
2018-09-22T12:54:11.421Z,43.20
2018-09-22T12:56:39.820Z,43.10
2018-09-22T12:59:08.205Z,43.20
2018-09-22T13:01:36.603Z,44.50
2018-09-22T13:04:04.950Z,45.20
2018-09-22T13:06:33.283Z,45.00
2018-09-22T13:09:01.672Z,44.70
2018-09-22T13:11:30.040Z,45.40
2018-09-22T13:13:58.403Z,46.70
2018-09-22T13:16:26.843Z,47.20
2018-09-22T13:18:55.217Z,46.50
2018-09-22T13:21:23.562Z,47.50
2018-09-22T13:23:51.923Z,48.10
2018-09-22T13:26:20.314Z,47.60
2018-09-22T13:28:48.651Z,48.00
2018-09-22T13:31:17.048Z,48.10
2018-09-22T13:33:45.431Z,48.60
2018-09-22T13:36:13.851Z,49.10
2018-09-22T13:38:42.239Z,49.30
2018-09-22T13:41:10.515Z,48.10
2018-09-22T13:43:38.924Z,49.00
2018-09-22T13:46:07.289Z,48.40
2018-09-22T13:48:35.647Z,48.10
2018-09-22T13:51:04.076Z,47.50
2018-09-22T13:53:32.502Z,48.60
2018-09-22T13:56:00.872Z,47.40
2018-09-22T13:58:29.270Z,48.40
2018-09-22T14:00:57.620Z,49.30
2018-09-22T14:03:26.061Z,49.90
2018-09-22T14:05:54.453Z,50.00
2018-09-22T14:08:22.815Z,50.20
2018-09-22T14:10:51.196Z,50.10
2018-09-22T14:13:19.571Z,49.90
2018-09-22T14:15:47.984Z,50.30
2018-09-22T14:18:16.319Z,50.00
2018-09-22T14:20:44.713Z,49.00
2018-09-22T14:23:13.072Z,49.10
2018-09-22T14:25:41.420Z,49.70
2018-09-22T14:28:09.759Z,49.20
2018-09-22T14:30:38.130Z,48.40
2018-09-22T14:33:06.442Z,50.20
2018-09-22T14:35:34.830Z,50.60
2018-09-22T14:38:03.171Z,50.50
2018-09-22T14:40:31.571Z,50.10
2018-09-22T14:42:59.868Z,50.40
2018-09-22T14:45:28.289Z,51.70
2018-09-22T14:47:56.666Z,50.80
2018-09-22T14:50:25.068Z,50.80
2018-09-22T14:52:53.424Z,51.90
2018-09-22T14:55:21.855Z,52.70
2018-09-22T14:57:50.145Z,51.90
2018-09-22T15:00:18.508Z,51.60
2018-09-22T15:02:46.911Z,51.50
2018-09-22T15:05:15.267Z,51.80
2018-09-22T15:07:43.662Z,52.00
2018-09-22T15:10:12.030Z,51.70
2018-09-22T15:12:40.401Z,51.90
2018-09-22T15:15:08.756Z,52.00
2018-09-22T15:17:37.192Z,51.60
2018-09-22T15:20:05.569Z,51.90
2018-09-22T15:22:33.936Z,52.00
2018-09-22T15:25:02.282Z,51.90
2018-09-22T15:27:30.591Z,52.70
2018-09-22T15:29:58.960Z,52.40
2018-09-22T15:32:27.371Z,51.40
2018-09-22T15:34:55.691Z,52.10
2018-09-22T15:37:24.114Z,52.30
2018-09-22T15:39:52.483Z,52.20
2018-09-22T15:42:20.903Z,52.20
2018-09-22T15:44:49.264Z,52.50
2018-09-22T15:47:17.664Z,52.10
2018-09-22T15:49:46.087Z,52.90
2018-09-22T15:52:14.497Z,51.40
2018-09-22T15:54:42.902Z,52.20
2018-09-22T15:57:11.260Z,52.90
2018-09-22T15:59:39.667Z,52.90
2018-09-22T16:02:08.000Z,52.20
2018-09-22T16:04:36.419Z,52.30
2018-09-22T16:07:04.835Z,52.40
2018-09-22T16:09:33.250Z,53.10
2018-09-22T16:12:01.656Z,53.30
2018-09-22T16:14:30.015Z,53.30
2018-09-22T16:16:58.335Z,53.70
2018-09-22T16:19:26.784Z,54.10
2018-09-22T16:21:55.253Z,53.50
2018-09-22T16:24:23.653Z,54.20
2018-09-22T16:26:52.017Z,54.50
2018-09-22T16:29:20.396Z,54.20
2018-09-22T16:31:48.830Z,54.80
2018-09-22T16:34:17.221Z,54.10
2018-09-22T16:36:45.625Z,54.20
2018-09-22T16:39:13.978Z,55.10
2018-09-22T16:41:42.355Z,55.30
2018-09-22T16:44:10.788Z,55.40
2018-09-22T16:46:39.184Z,55.70
2018-09-22T16:49:07.611Z,56.20
2018-09-22T16:51:35.955Z,56.00
2018-09-22T16:54:04.331Z,56.30
2018-09-22T16:56:32.731Z,56.50
2018-09-22T16:59:01.139Z,56.50
2018-09-22T17:01:29.512Z,56.40
2018-09-22T17:03:57.930Z,56.60
2018-09-22T17:06:26.304Z,56.60
2018-09-22T17:08:54.659Z,56.60
2018-09-22T17:11:23.051Z,56.40
2018-09-22T17:13:51.415Z,56.50
2018-09-22T17:16:19.898Z,56.60
2018-09-22T17:18:48.236Z,57.30
2018-09-22T17:21:16.617Z,57.30
2018-09-22T17:23:44.995Z,56.90
2018-09-22T17:26:13.327Z,56.50
2018-09-22T17:28:41.702Z,53.20
2018-09-22T17:31:10.238Z,53.90
2018-09-22T17:33:38.617Z,55.80
2018-09-22T17:36:07.234Z,57.50
2018-09-22T17:38:35.632Z,59.30
2018-09-22T17:41:04.052Z,57.60
2018-09-22T17:43:32.416Z,57.50
2018-09-22T17:46:00.859Z,57.80
2018-09-22T17:48:29.213Z,58.00
2018-09-22T17:50:57.652Z,57.00
2018-09-22T17:53:26.071Z,57.00
2018-09-22T17:55:54.455Z,56.40
2018-09-22T17:58:22.831Z,57.40
2018-09-22T18:00:51.378Z,57.70
2018-09-22T18:03:19.752Z,58.40
2018-09-22T18:05:48.220Z,58.60
2018-09-22T18:08:16.576Z,58.30
2018-09-22T18:10:44.913Z,58.40
2018-09-22T18:13:13.328Z,58.80
2018-09-22T18:15:41.808Z,59.20
2018-09-22T18:18:10.183Z,58.90
2018-09-22T18:20:38.614Z,58.80
2018-09-22T18:23:06.958Z,59.20
2018-09-22T18:25:35.342Z,59.90
2018-09-22T18:28:03.780Z,60.00
2018-09-22T18:30:32.128Z,60.10
2018-09-22T18:33:00.555Z,61.10
2018-09-22T18:35:28.945Z,61.30
2018-09-22T18:37:57.305Z,60.40
2018-09-22T18:40:25.685Z,59.60
2018-09-22T18:42:54.090Z,58.50
2018-09-22T18:45:22.526Z,57.70
2018-09-22T18:47:50.939Z,58.60
2018-09-22T18:50:19.351Z,59.80
2018-09-22T18:52:47.747Z,60.10
2018-09-22T18:55:16.133Z,60.60
2018-09-22T18:57:44.536Z,59.80
2018-09-22T19:00:12.937Z,59.80
2018-09-22T19:02:41.355Z,59.60
2018-09-22T19:05:09.701Z,59.80
2018-09-22T19:07:38.098Z,60.40
2018-09-22T19:10:06.528Z,60.00
2018-09-22T19:12:34.915Z,59.70
2018-09-22T19:15:10.111Z,61.40
2018-09-22T19:18:12.932Z,60.20
2018-09-22T19:20:46.920Z,58.40
2018-09-22T19:23:20.061Z,57.60
2018-09-22T19:25:51.854Z,57.50
2018-09-22T19:28:25.077Z,56.60
2018-09-22T19:30:55.344Z,56.20
2018-09-22T19:33:38.181Z,55.80
2018-09-22T19:36:24.729Z,55.50
2018-09-22T19:39:12.001Z,56.40
2018-09-22T19:41:49.328Z,55.80
2018-09-22T19:44:25.363Z,56.40
2018-09-22T19:47:00.256Z,56.70
2018-09-22T19:49:33.475Z,56.10
2018-09-22T19:52:05.871Z,56.20
2018-09-22T19:54:34.263Z,56.70
2018-09-22T19:57:02.641Z,57.20
2018-09-22T19:59:31.052Z,57.30
2018-09-22T20:01:59.431Z,57.70
2018-09-22T20:04:27.784Z,57.00
2018-09-22T20:06:56.143Z,56.90
2018-09-22T20:09:24.531Z,57.60
2018-09-22T20:11:52.947Z,57.90
2018-09-22T20:14:21.450Z,58.00
2018-09-22T20:16:50.059Z,57.70
2018-09-22T20:19:18.462Z,57.70
2018-09-22T20:21:46.848Z,57.80
2018-09-22T20:24:15.226Z,57.40
2018-09-22T20:26:43.579Z,57.70
2018-09-22T20:29:11.974Z,59.50
2018-09-22T20:31:40.383Z,61.00
2018-09-22T20:34:08.730Z,60.50
2018-09-22T20:36:37.107Z,61.10
2018-09-22T20:39:07.916Z,61.10
2018-09-22T20:41:36.281Z,59.80
2018-09-22T20:44:04.771Z,59.10
2018-09-22T20:46:33.139Z,59.50
2018-09-22T20:49:01.563Z,58.60
2018-09-22T20:51:30.008Z,58.50
2018-09-22T20:53:58.472Z,57.80
2018-09-22T20:56:26.856Z,57.40
2018-09-22T20:58:55.207Z,56.80
2018-09-22T21:01:24.372Z,57.10
2018-09-22T21:03:52.734Z,57.10
2018-09-22T21:06:21.104Z,57.10
2018-09-22T21:08:49.497Z,57.10
2018-09-22T21:11:17.841Z,57.60
2018-09-22T21:13:46.366Z,56.50
2018-09-22T21:16:14.739Z,56.90
2018-09-22T21:18:43.135Z,57.50
2018-09-22T21:21:11.547Z,57.90
2018-09-22T21:23:39.963Z,58.20
2018-09-22T21:26:08.472Z,58.70
2018-09-22T21:28:36.851Z,59.50
2018-09-22T21:31:05.228Z,61.50
2018-09-22T21:33:33.586Z,62.70
2018-09-22T21:36:02.028Z,62.90
2018-09-22T21:38:30.424Z,63.20
2018-09-22T21:40:58.847Z,64.20
2018-09-22T21:43:27.345Z,64.60
2018-09-22T21:45:55.688Z,65.40
2018-09-22T21:48:24.083Z,65.20
2018-09-22T21:50:52.469Z,65.90
2018-09-22T21:53:20.869Z,66.70
2018-09-22T21:55:49.312Z,67.30
2018-09-22T21:58:17.672Z,68.10
2018-09-22T22:00:52.997Z,68.60
2018-09-22T22:03:22.556Z,68.90
2018-09-22T22:05:50.972Z,68.80
2018-09-22T22:08:19.391Z,68.90
2018-09-22T22:10:47.748Z,69.10
2018-09-22T22:13:16.139Z,69.20
2018-09-22T22:15:44.539Z,69.40
2018-09-22T22:18:12.943Z,70.70
2018-09-22T22:20:41.351Z,69.80
2018-09-22T22:23:10.032Z,69.70
2018-09-22T22:25:38.612Z,70.20
2018-09-22T22:28:07.004Z,70.40
2018-09-22T22:30:35.411Z,71.10
2018-09-22T22:33:03.811Z,71.20
2018-09-22T22:35:32.185Z,71.50
2018-09-22T22:38:00.556Z,71.40
2018-09-22T22:40:28.928Z,71.40
2018-09-22T22:42:57.335Z,72.10
2018-09-22T22:45:25.734Z,72.00
2018-09-22T22:47:54.040Z,72.30
2018-09-22T22:50:22.511Z,71.90
2018-09-22T22:52:50.883Z,72.00
2018-09-22T22:55:19.259Z,71.60
2018-09-22T22:57:47.725Z,72.00
2018-09-22T23:00:16.117Z,71.30
2018-09-22T23:02:44.499Z,71.00
2018-09-22T23:05:12.862Z,71.10
2018-09-22T23:07:41.279Z,71.10
2018-09-22T23:10:09.700Z,71.20
2018-09-22T23:12:38.111Z,71.10
2018-09-22T23:15:06.574Z,71.30
2018-09-22T23:17:34.995Z,71.40
2018-09-22T23:20:03.418Z,71.30
2018-09-22T23:22:31.801Z,71.40
2018-09-22T23:25:00.169Z,71.40
2018-09-22T23:27:28.569Z,71.70
2018-09-22T23:29:57.009Z,72.10
2018-09-22T23:32:25.433Z,71.90
2018-09-22T23:34:53.826Z,72.40
2018-09-22T23:37:22.235Z,72.80
2018-09-22T23:39:50.623Z,72.70
2018-09-22T23:42:19.061Z,72.20
2018-09-22T23:44:47.526Z,71.90
2018-09-22T23:47:15.914Z,72.10
2018-09-22T23:49:44.344Z,72.50
2018-09-22T23:52:12.782Z,72.30
2018-09-22T23:54:41.216Z,72.40
2018-09-22T23:57:09.618Z,72.00
2018-09-22T23:59:38.013Z,72.40
